createdAt,value
2023-03-06T00:00:53.705Z,98945.61
2023-03-06T00:03:24.231Z,98943.65
2023-03-06T00:05:56.661Z,98947.00
2023-03-06T00:08:27.169Z,98941.13
2023-03-06T00:10:57.949Z,98941.66
2023-03-06T00:13:31.418Z,98938.40
2023-03-06T00:16:02.277Z,98938.68
2023-03-06T00:18:32.015Z,98935.79
2023-03-06T00:21:02.052Z,98929.81
2023-03-06T00:23:31.305Z,98936.39
2023-03-06T00:26:00.642Z,98936.69
2023-03-06T00:28:32.631Z,98934.77
2023-03-06T00:31:05.165Z,98933.54
2023-03-06T00:33:34.690Z,98928.83
2023-03-06T00:36:08.419Z,98929.78
2023-03-06T00:38:38.942Z,98929.77
2023-03-06T00:41:10.911Z,98924.90
2023-03-06T00:43:41.423Z,98923.91
2023-03-06T00:46:10.762Z,98923.40
2023-03-06T00:48:41.683Z,98925.08
2023-03-06T00:51:13.798Z,98924.91
2023-03-06T00:53:43.578Z,98924.66
2023-03-06T00:56:13.261Z,98926.75
2023-03-06T00:58:42.912Z,98926.34
2023-03-06T01:01:12.722Z,98926.83
2023-03-06T01:03:42.576Z,98929.30
2023-03-06T01:06:12.078Z,98925.86
2023-03-06T01:08:41.550Z,98925.16
2023-03-06T01:11:11.451Z,98923.20
2023-03-06T01:13:41.159Z,98925.94
2023-03-06T01:16:12.970Z,98924.86
2023-03-06T01:18:44.106Z,98924.59
2023-03-06T01:21:14.470Z,98919.90
2023-03-06T01:23:45.634Z,98913.02
2023-03-06T01:26:15.746Z,98917.51
2023-03-06T01:28:45.880Z,98916.79
2023-03-06T01:31:16.878Z,98916.45
2023-03-06T01:33:46.753Z,98919.98
2023-03-06T01:36:16.878Z,98919.23
2023-03-06T01:38:48.614Z,98916.33
2023-03-06T01:41:19.381Z,98910.07
2023-03-06T01:43:51.342Z,98910.11
2023-03-06T01:46:32.523Z,98903.64
2023-03-06T01:49:20.637Z,98907.84
2023-03-06T01:52:03.724Z,98907.80
2023-03-06T01:54:36.967Z,98902.67
2023-03-06T01:57:34.813Z,98900.83
2023-03-06T02:00:09.663Z,98897.64
2023-03-06T02:02:49.033Z,98898.73
2023-03-06T02:05:18.698Z,98898.70
2023-03-06T02:07:49.241Z,98899.41
2023-03-06T02:10:19.729Z,98898.81
2023-03-06T02:12:50.482Z,98903.64
2023-03-06T02:15:24.141Z,98908.39
2023-03-06T02:17:53.970Z,98909.14
2023-03-06T02:20:38.725Z,98909.02
2023-03-06T02:23:31.926Z,98910.54
2023-03-06T02:26:02.906Z,98906.13
2023-03-06T02:28:32.669Z,98902.11
2023-03-06T02:31:03.952Z,98903.24
2023-03-06T02:33:34.649Z,98909.26
2023-03-06T02:36:06.876Z,98908.08
2023-03-06T02:38:41.972Z,98905.45
2023-03-06T02:41:13.261Z,98907.55
2023-03-06T02:43:45.311Z,98905.80
2023-03-06T02:46:16.647Z,98911.25
2023-03-06T02:48:47.032Z,98910.52
2023-03-06T02:51:16.643Z,98906.71
2023-03-06T02:53:46.039Z,98909.16
2023-03-06T02:56:17.679Z,98904.25
2023-03-06T02:58:47.729Z,98907.73
2023-03-06T03:01:17.535Z,98908.55
2023-03-06T03:03:47.634Z,98906.90
2023-03-06T03:06:17.472Z,98907.33
2023-03-06T03:08:46.905Z,98910.02
2023-03-06T03:11:16.873Z,98913.14
2023-03-06T03:13:48.000Z,98910.30
2023-03-06T03:16:21.443Z,98914.59
2023-03-06T03:18:53.465Z,98919.47
2023-03-06T03:21:24.601Z,98923.81
2023-03-06T03:23:55.868Z,98927.48
2023-03-06T03:26:27.272Z,98929.00
2023-03-06T03:29:06.615Z,98923.73
2023-03-06T03:31:35.942Z,98925.17
2023-03-06T03:34:06.097Z,98930.92
2023-03-06T03:36:38.553Z,98930.95
2023-03-06T03:39:08.397Z,98934.09
2023-03-06T03:41:40.101Z,98928.77
2023-03-06T03:44:13.131Z,98932.13
2023-03-06T03:46:42.673Z,98928.11
2023-03-06T03:49:17.025Z,98932.46
2023-03-06T03:51:46.835Z,98931.77
2023-03-06T03:54:16.310Z,98934.63
2023-03-06T03:56:47.948Z,98934.66
2023-03-06T03:59:25.937Z,98934.21
2023-03-06T04:02:07.695Z,98936.05
2023-03-06T04:04:40.979Z,98933.51
2023-03-06T04:07:10.900Z,98935.92
2023-03-06T04:09:40.932Z,98937.75
2023-03-06T04:12:10.846Z,98940.54
2023-03-06T04:14:40.041Z,98936.48
2023-03-06T04:17:09.429Z,98938.36
2023-03-06T04:19:39.427Z,98938.90
2023-03-06T04:22:11.579Z,98938.09
2023-03-06T04:24:41.286Z,98935.56
2023-03-06T04:27:11.605Z,98942.10
2023-03-06T04:29:41.235Z,98940.21
2023-03-06T04:32:10.594Z,98943.23
2023-03-06T04:34:41.310Z,98943.02
2023-03-06T04:37:24.416Z,98946.24
2023-03-06T04:39:56.234Z,98948.44
2023-03-06T04:42:25.958Z,98952.03
2023-03-06T04:44:55.657Z,98955.14
2023-03-06T04:47:25.058Z,98958.30
2023-03-06T04:49:54.746Z,98958.48
2023-03-06T04:52:26.983Z,98961.58
2023-03-06T04:55:09.793Z,98958.61
2023-03-06T04:57:40.519Z,98958.94
2023-03-06T05:00:15.256Z,98969.06
2023-03-06T05:02:45.475Z,98966.22
2023-03-06T05:05:15.576Z,98972.08
2023-03-06T05:07:45.869Z,98977.45
2023-03-06T05:10:18.882Z,98977.75
2023-03-06T05:12:48.724Z,98983.42
2023-03-06T05:15:18.732Z,98987.27
2023-03-06T05:17:49.119Z,98991.34
2023-03-06T05:20:19.003Z,98994.63
2023-03-06T05:22:48.321Z,98999.85
2023-03-06T05:25:18.047Z,99002.91
2023-03-06T05:27:47.305Z,99006.23
2023-03-06T05:30:17.036Z,98998.70
2023-03-06T05:32:46.502Z,99009.52
2023-03-06T05:35:21.214Z,99013.05
2023-03-06T05:37:51.312Z,99014.41
2023-03-06T05:40:20.990Z,99016.60
2023-03-06T05:42:50.829Z,99019.98
2023-03-06T05:45:20.518Z,99024.66
2023-03-06T05:47:50.238Z,99027.52
2023-03-06T05:50:19.629Z,99024.43
2023-03-06T05:52:51.962Z,99030.20
2023-03-06T05:55:22.942Z,99030.58
2023-03-06T05:57:53.562Z,99034.31
2023-03-06T06:00:26.258Z,99019.53
2023-03-06T06:02:55.575Z,99035.24
2023-03-06T06:05:25.052Z,99035.67
2023-03-06T06:07:54.800Z,99035.64
2023-03-06T06:10:24.528Z,99041.21
2023-03-06T06:12:53.983Z,99036.96
2023-03-06T06:15:23.711Z,99027.91
2023-03-06T06:17:53.376Z,99031.88
2023-03-06T06:20:25.027Z,99034.59
2023-03-06T06:22:54.661Z,99034.16
2023-03-06T06:25:24.381Z,99033.27
2023-03-06T06:27:56.762Z,99040.19
2023-03-06T06:30:28.797Z,99047.78
2023-03-06T06:32:58.367Z,99047.79
2023-03-06T06:35:28.253Z,99051.38
2023-03-06T06:37:58.202Z,99054.66
2023-03-06T06:40:29.366Z,99057.48
2023-03-06T06:42:59.661Z,99057.52
2023-03-06T06:45:29.642Z,99056.77
2023-03-06T06:48:02.510Z,99059.66
2023-03-06T06:50:34.257Z,99056.00
2023-03-06T06:53:03.960Z,99057.63
2023-03-06T06:55:36.001Z,99052.89
2023-03-06T06:58:05.374Z,99050.52
2023-03-06T07:00:37.417Z,99057.42
2023-03-06T07:03:06.831Z,99060.60
2023-03-06T07:05:37.002Z,99056.96
2023-03-06T07:08:06.738Z,99067.19
2023-03-06T07:10:36.806Z,99067.72
2023-03-06T07:13:07.364Z,99071.55
2023-03-06T07:15:37.490Z,99074.61
2023-03-06T07:18:07.220Z,99070.52
2023-03-06T07:20:37.616Z,99069.65
2023-03-06T07:23:09.904Z,99066.30
2023-03-06T07:25:39.693Z,99070.77
2023-03-06T07:28:09.274Z,99078.95
2023-03-06T07:30:42.036Z,99077.44
2023-03-06T07:33:11.823Z,99075.17
2023-03-06T07:35:45.551Z,99079.19
2023-03-06T07:38:15.989Z,99078.75
2023-03-06T07:40:46.130Z,99074.16
2023-03-06T07:43:19.304Z,99079.96
2023-03-06T07:45:59.540Z,99083.05
2023-03-06T07:48:29.245Z,99080.50
2023-03-06T07:51:04.231Z,99069.86
2023-03-06T07:53:34.901Z,99082.33
2023-03-06T07:56:10.026Z,99084.80
2023-03-06T07:58:46.001Z,99084.17
2023-03-06T08:01:21.321Z,99077.95
2023-03-06T08:03:51.528Z,99080.46
2023-03-06T08:06:27.138Z,99078.83
2023-03-06T08:08:58.050Z,99078.27
2023-03-06T08:11:29.350Z,99074.63
2023-03-06T08:13:59.486Z,99075.48
2023-03-06T08:16:30.751Z,99078.25
2023-03-06T08:19:03.340Z,99081.95
2023-03-06T08:21:36.597Z,99083.23
2023-03-06T08:24:07.574Z,99084.52
2023-03-06T08:26:38.072Z,99078.99
2023-03-06T08:29:12.405Z,99084.81
2023-03-06T08:31:44.101Z,99075.98
2023-03-06T08:34:20.825Z,99081.88
2023-03-06T08:36:50.954Z,99077.98
2023-03-06T08:39:20.862Z,99086.34
2023-03-06T08:41:50.407Z,99088.27
2023-03-06T08:44:20.340Z,99089.80
2023-03-06T08:46:50.803Z,99091.29
2023-03-06T08:49:20.435Z,99088.64
2023-03-06T08:51:49.817Z,99084.42
2023-03-06T08:54:22.691Z,99092.64
2023-03-06T08:56:52.393Z,99088.27
2023-03-06T08:59:21.825Z,99086.12
2023-03-06T09:01:51.236Z,99077.13
2023-03-06T09:04:20.722Z,99087.18
2023-03-06T09:06:50.138Z,99094.15
2023-03-06T09:09:20.675Z,99097.89
2023-03-06T09:11:50.273Z,99094.05
2023-03-06T09:14:19.365Z,99097.52
2023-03-06T09:16:48.607Z,99096.91
2023-03-06T09:19:18.285Z,99091.76
2023-03-06T09:21:47.756Z,99096.76
2023-03-06T09:24:18.202Z,99097.33
2023-03-06T09:26:53.511Z,99095.15
2023-03-06T09:29:23.209Z,99089.39
2023-03-06T09:31:52.833Z,99089.36
2023-03-06T09:34:22.248Z,99090.15
2023-03-06T09:36:56.699Z,99087.27
2023-03-06T09:39:27.453Z,99092.21
2023-03-06T09:41:59.671Z,99091.48
2023-03-06T09:44:32.274Z,99095.41
2023-03-06T09:47:01.960Z,99093.80
2023-03-06T09:50:11.389Z,99092.13
2023-03-06T09:52:49.770Z,99087.10
2023-03-06T09:55:25.595Z,99091.21
2023-03-06T09:58:07.594Z,99081.63
2023-03-06T10:00:44.319Z,99072.02
2023-03-06T10:03:26.640Z,99077.94
2023-03-06T10:06:10.340Z,99061.11
2023-03-06T10:09:02.080Z,99056.52
2023-03-06T10:12:00.267Z,99061.74
2023-03-06T10:14:47.068Z,99055.33
2023-03-06T10:17:19.740Z,99054.80
2023-03-06T10:19:49.543Z,99059.42
2023-03-06T10:22:24.938Z,99068.98
2023-03-06T10:25:05.980Z,99058.45
2023-03-06T10:27:46.280Z,99052.92
2023-03-06T10:30:27.010Z,99051.39
2023-03-06T10:33:00.206Z,99058.30
2023-03-06T10:35:34.551Z,99059.09
2023-03-06T10:38:33.204Z,99058.86
2023-03-06T10:41:11.285Z,99055.16
2023-03-06T10:43:42.035Z,99057.52
2023-03-06T10:46:27.120Z,99052.91
2023-03-06T10:49:06.139Z,99051.52
2023-03-06T10:51:36.225Z,99046.88
2023-03-06T10:54:19.970Z,99048.64
2023-03-06T10:56:49.362Z,99042.85
2023-03-06T10:59:26.018Z,99036.13
2023-03-06T11:02:14.757Z,99036.08
2023-03-06T11:04:47.284Z,99040.04
2023-03-06T11:07:21.713Z,99042.88
2023-03-06T11:09:59.604Z,99042.73
2023-03-06T11:12:33.408Z,99042.41
2023-03-06T11:15:10.093Z,99045.34
2023-03-06T11:17:52.945Z,99044.38
2023-03-06T11:20:24.234Z,99037.83
2023-03-06T11:23:15.773Z,99037.41
2023-03-06T11:25:51.279Z,99032.14
2023-03-06T11:28:32.464Z,99033.51
2023-03-06T11:31:32.777Z,99028.59
2023-03-06T11:34:32.662Z,99031.69
2023-03-06T11:37:07.213Z,99026.13
2023-03-06T11:40:03.733Z,99018.95
2023-03-06T11:42:37.925Z,99026.25
2023-03-06T11:45:46.420Z,99020.02
2023-03-06T11:48:15.457Z,99021.50
2023-03-06T11:50:52.523Z,99025.91
2023-03-06T11:53:33.034Z,99024.17
2023-03-06T11:56:20.510Z,99019.27
2023-03-06T11:58:58.633Z,99022.70
2023-03-06T12:01:49.306Z,99006.14
2023-03-06T12:04:44.823Z,99019.08
2023-03-06T12:07:36.501Z,99011.08
2023-03-06T12:10:19.651Z,99010.52
2023-03-06T12:12:48.080Z,99013.49
2023-03-06T12:15:44.750Z,99012.07
2023-03-06T12:18:22.377Z,99009.73
2023-03-06T12:20:53.906Z,99007.71
2023-03-06T12:23:41.202Z,99004.08
2023-03-06T12:26:20.026Z,99010.73
2023-03-06T12:29:22.720Z,99005.23
2023-03-06T12:32:10.393Z,98996.65
2023-03-06T12:35:05.992Z,98995.50
2023-03-06T12:37:59.996Z,98995.75
2023-03-06T12:40:46.763Z,98999.90
2023-03-06T12:43:40.248Z,99000.34
2023-03-06T12:46:20.398Z,98998.90
2023-03-06T12:49:23.025Z,98990.54
2023-03-06T12:52:00.150Z,99000.74
2023-03-06T12:54:31.852Z,98996.88
2023-03-06T12:57:01.306Z,99000.15
2023-03-06T12:59:48.919Z,98995.42
2023-03-06T13:02:29.372Z,98993.98
2023-03-06T13:05:19.069Z,99003.19
2023-03-06T13:07:59.828Z,98994.17
2023-03-06T13:10:32.357Z,98995.63
2023-03-06T13:13:01.948Z,98992.95
2023-03-06T13:15:43.319Z,98995.06
2023-03-06T13:18:24.180Z,98995.16
2023-03-06T13:20:56.771Z,98994.20
2023-03-06T13:23:37.664Z,98994.09
2023-03-06T13:26:25.926Z,98982.83
2023-03-06T13:28:56.244Z,98994.36
2023-03-06T13:31:35.302Z,98987.95
2023-03-06T13:34:05.647Z,98990.98
2023-03-06T13:36:38.406Z,98987.80
2023-03-06T13:39:12.206Z,98990.41
2023-03-06T13:41:53.757Z,98993.62
2023-03-06T13:44:25.752Z,98993.05
2023-03-06T13:47:08.893Z,98993.71
2023-03-06T13:49:45.801Z,98990.91
2023-03-06T13:52:44.564Z,98982.73
2023-03-06T13:55:29.774Z,98983.28
2023-03-06T13:58:10.847Z,98986.61
2023-03-06T14:00:45.163Z,98980.86
2023-03-06T14:03:34.084Z,98978.42
2023-03-06T14:06:31.215Z,98986.23
2023-03-06T14:09:00.175Z,98987.95
2023-03-06T14:11:28.980Z,98989.02
2023-03-06T14:13:58.305Z,98983.44
2023-03-06T14:16:40.505Z,98986.62
2023-03-06T14:19:17.928Z,98989.80
2023-03-06T14:21:49.959Z,98986.35
2023-03-06T14:24:31.829Z,98993.80
2023-03-06T14:27:00.954Z,98998.11
2023-03-06T14:29:30.413Z,98995.80
2023-03-06T14:32:01.258Z,98990.11
2023-03-06T14:34:33.147Z,98993.84
2023-03-06T14:37:05.978Z,98996.91
2023-03-06T14:39:40.499Z,98994.65
2023-03-06T14:42:26.772Z,98995.67
2023-03-06T14:45:08.408Z,98999.17
2023-03-06T14:47:37.232Z,98998.67
2023-03-06T14:50:26.620Z,99000.21
2023-03-06T14:53:01.277Z,98995.16
2023-03-06T14:55:30.733Z,98997.61
2023-03-06T14:58:22.656Z,98988.32
2023-03-06T15:00:54.739Z,98994.11
2023-03-06T15:03:46.057Z,98994.23
2023-03-06T15:06:21.180Z,98986.70
2023-03-06T15:09:14.571Z,98988.06
2023-03-06T15:11:52.866Z,98985.14
2023-03-06T15:14:28.205Z,98983.84
2023-03-06T15:16:56.738Z,98987.11
2023-03-06T15:19:25.149Z,98989.63
2023-03-06T15:21:53.634Z,98992.65
2023-03-06T15:24:36.375Z,98994.98
2023-03-06T15:27:07.426Z,98991.40
2023-03-06T15:29:39.663Z,98996.86
2023-03-06T15:32:14.355Z,98994.80
2023-03-06T15:34:42.956Z,98995.80
2023-03-06T15:37:27.890Z,98993.42
2023-03-06T15:40:09.687Z,98984.23
2023-03-06T15:42:38.110Z,99000.55
2023-03-06T15:45:19.716Z,98997.80
2023-03-06T15:47:54.627Z,98992.89
2023-03-06T15:50:29.036Z,98992.79
2023-03-06T15:52:57.524Z,98989.45
2023-03-06T15:55:26.295Z,98996.69
2023-03-06T15:58:03.174Z,99000.98
2023-03-06T16:00:34.478Z,99004.40
2023-03-06T16:03:03.260Z,99010.80
2023-03-06T16:05:31.726Z,99006.42
2023-03-06T16:08:00.181Z,99014.14
2023-03-06T16:10:30.052Z,99016.16
2023-03-06T16:13:04.736Z,99017.14
2023-03-06T16:15:37.985Z,99020.36
2023-03-06T16:18:07.033Z,99025.90
2023-03-06T16:20:35.403Z,99027.39
2023-03-06T16:23:08.109Z,99031.48
2023-03-06T16:25:38.414Z,99028.08
2023-03-06T16:28:11.782Z,99032.98
2023-03-06T16:30:41.342Z,99034.65
2023-03-06T16:33:12.763Z,99032.98
2023-03-06T16:35:41.484Z,99037.95
2023-03-06T16:38:10.301Z,99037.48
2023-03-06T16:40:41.594Z,99042.70
2023-03-06T16:43:10.843Z,99043.92
2023-03-06T16:45:41.904Z,99039.89
2023-03-06T16:48:16.007Z,99040.98
2023-03-06T16:50:44.726Z,99040.18
2023-03-06T16:53:14.261Z,99046.05
2023-03-06T16:55:42.715Z,99042.95
2023-03-06T16:58:11.273Z,99043.41
2023-03-06T17:00:39.746Z,99041.02
2023-03-06T17:03:08.112Z,99041.20
2023-03-06T17:05:37.365Z,99042.40
2023-03-06T17:08:05.922Z,99042.67
2023-03-06T17:10:35.078Z,99039.63
2023-03-06T17:13:04.244Z,99041.45
2023-03-06T17:15:32.670Z,99038.05
2023-03-06T17:18:01.139Z,99039.17
2023-03-06T17:20:30.170Z,99036.75
2023-03-06T17:22:58.668Z,99034.35
2023-03-06T17:25:27.188Z,99040.30
2023-03-06T17:27:55.970Z,99035.02
2023-03-06T17:30:24.458Z,99025.23
2023-03-06T17:32:53.879Z,99027.05
2023-03-06T17:35:22.421Z,99035.24
2023-03-06T17:37:51.398Z,99040.52
2023-03-06T17:40:20.133Z,99034.02
2023-03-06T17:42:48.621Z,99040.07
2023-03-06T17:45:17.080Z,99044.01
2023-03-06T17:47:47.407Z,99044.17
2023-03-06T17:50:17.396Z,99042.58
2023-03-06T17:52:46.093Z,99044.54
2023-03-06T17:55:14.661Z,99041.51
2023-03-06T17:57:43.147Z,99043.05
2023-03-06T18:00:12.337Z,99046.02
2023-03-06T18:02:42.312Z,99045.09
2023-03-06T18:05:11.279Z,99049.41
2023-03-06T18:07:39.693Z,99050.71
2023-03-06T18:10:08.308Z,99044.05
2023-03-06T18:12:36.874Z,99043.85
2023-03-06T18:15:06.533Z,99051.76
2023-03-06T18:17:35.052Z,99053.28
2023-03-06T18:20:03.940Z,99053.89
2023-03-06T18:22:32.586Z,99055.77
2023-03-06T18:25:01.176Z,99056.09
2023-03-06T18:27:32.384Z,99054.41
2023-03-06T18:30:01.622Z,99046.73
2023-03-06T18:32:30.042Z,99045.27
2023-03-06T18:34:59.275Z,99051.73
2023-03-06T18:37:28.007Z,99053.80
2023-03-06T18:39:56.544Z,99048.86
2023-03-06T18:42:26.459Z,99053.30
2023-03-06T18:44:54.836Z,99046.70
2023-03-06T18:47:23.206Z,99045.67
2023-03-06T18:49:53.088Z,99041.28
2023-03-06T18:52:22.026Z,99042.63
2023-03-06T18:54:51.082Z,99045.06
2023-03-06T18:57:19.846Z,99049.62
2023-03-06T18:59:48.958Z,99052.31
2023-03-06T19:02:17.825Z,99052.40
2023-03-06T19:04:46.821Z,99054.77
2023-03-06T19:07:15.676Z,99052.90
2023-03-06T19:09:44.610Z,99051.30
2023-03-06T19:12:13.191Z,99040.99
2023-03-06T19:14:41.554Z,99037.63
2023-03-06T19:17:09.965Z,99034.93
2023-03-06T19:19:38.481Z,99032.47
2023-03-06T19:22:06.862Z,99030.02
2023-03-06T19:24:35.235Z,99027.30
2023-03-06T19:27:03.661Z,99028.87
2023-03-06T19:29:32.769Z,99031.17
2023-03-06T19:32:01.490Z,99026.42
2023-03-06T19:34:30.082Z,99025.01
2023-03-06T19:36:58.566Z,99025.98
2023-03-06T19:39:27.169Z,99014.94
2023-03-06T19:41:55.678Z,99024.66
2023-03-06T19:44:24.123Z,99021.48
2023-03-06T19:46:52.460Z,99014.94
2023-03-06T19:49:22.557Z,99017.71
2023-03-06T19:51:51.044Z,99018.21
2023-03-06T19:54:23.612Z,99019.90
2023-03-06T19:56:52.131Z,99024.73
2023-03-06T19:59:20.579Z,99017.45
2023-03-06T20:01:49.314Z,99020.84
2023-03-06T20:04:17.824Z,99019.86
2023-03-06T20:06:46.943Z,99019.03
2023-03-06T20:09:18.064Z,99016.91
2023-03-06T20:11:48.914Z,99021.34
2023-03-06T20:14:18.799Z,99019.50
2023-03-06T20:16:47.206Z,99019.20
2023-03-06T20:19:16.821Z,99019.37
2023-03-06T20:21:45.375Z,99019.00
2023-03-06T20:24:16.990Z,99019.28
2023-03-06T20:26:46.291Z,99021.97
2023-03-06T20:29:15.100Z,99018.21
2023-03-06T20:31:43.742Z,99018.18
2023-03-06T20:34:13.325Z,99018.05
2023-03-06T20:36:41.760Z,99013.17
2023-03-06T20:39:13.273Z,99014.16
2023-03-06T20:41:42.024Z,99010.83
2023-03-06T20:44:13.933Z,99006.33
2023-03-06T20:46:42.402Z,99002.39
2023-03-06T20:49:13.137Z,99003.66
2023-03-06T20:51:42.081Z,99000.95
2023-03-06T20:54:13.281Z,98998.04
2023-03-06T20:56:42.805Z,98991.57
2023-03-06T20:59:12.280Z,98989.29
2023-03-06T21:01:42.468Z,98982.61
2023-03-06T21:04:14.012Z,98979.42
2023-03-06T21:06:47.007Z,98977.70
2023-03-06T21:09:17.289Z,98974.73
2023-03-06T21:11:45.923Z,98969.14
2023-03-06T21:14:15.144Z,98954.55
2023-03-06T21:16:43.978Z,98950.75
2023-03-06T21:19:12.482Z,98942.11
2023-03-06T21:21:41.035Z,98938.95
2023-03-06T21:24:09.425Z,98926.70
2023-03-06T21:26:38.253Z,98930.30
2023-03-06T21:29:06.753Z,98925.54
2023-03-06T21:31:35.198Z,98923.23
2023-03-06T21:34:05.344Z,98915.50
2023-03-06T21:36:34.344Z,98910.62
2023-03-06T21:39:06.525Z,98909.31
2023-03-06T21:41:35.165Z,98912.63
2023-03-06T21:44:05.624Z,98906.69
2023-03-06T21:46:35.041Z,98905.02
2023-03-06T21:49:04.835Z,98907.19
2023-03-06T21:51:33.432Z,98904.06
2023-03-06T21:54:03.219Z,98904.88
2023-03-06T21:56:33.691Z,98907.83
2023-03-06T21:59:02.356Z,98905.02
2023-03-06T22:01:31.212Z,98898.91
2023-03-06T22:04:00.413Z,98906.48
2023-03-06T22:06:30.374Z,98906.35
2023-03-06T22:09:00.512Z,98908.15
2023-03-06T22:11:31.674Z,98907.84
2023-03-06T22:14:00.275Z,98912.34
2023-03-06T22:16:28.820Z,98911.40
2023-03-06T22:18:57.555Z,98909.52
2023-03-06T22:21:26.494Z,98909.65
2023-03-06T22:23:57.728Z,98908.39
2023-03-06T22:26:28.016Z,98914.92
2023-03-06T22:28:56.551Z,98917.73
2023-03-06T22:31:26.772Z,98913.88
2023-03-06T22:33:56.412Z,98914.58
2023-03-06T22:36:25.309Z,98909.21
2023-03-06T22:38:58.936Z,98914.58
2023-03-06T22:41:28.076Z,98902.95
2023-03-06T22:43:57.932Z,98915.83
2023-03-06T22:46:26.743Z,98916.70
2023-03-06T22:48:57.512Z,98918.86
2023-03-06T22:51:26.692Z,98914.58
2023-03-06T22:53:55.159Z,98917.52
2023-03-06T22:56:23.965Z,98916.38
2023-03-06T22:58:52.431Z,98908.73
2023-03-06T23:01:23.492Z,98915.06
2023-03-06T23:03:54.126Z,98913.76
2023-03-06T23:06:28.070Z,98914.38
2023-03-06T23:09:01.572Z,98906.22
2023-03-06T23:11:30.514Z,98903.77
2023-03-06T23:14:19.391Z,98899.59
2023-03-06T23:17:06.845Z,98894.27
2023-03-06T23:19:53.882Z,98890.09
2023-03-06T23:22:40.578Z,98884.56
2023-03-06T23:25:27.752Z,98879.20
2023-03-06T23:27:56.182Z,98875.80
2023-03-06T23:30:24.649Z,98870.52
2023-03-06T23:32:53.060Z,98870.52
2023-03-06T23:35:21.397Z,98869.33
2023-03-06T23:37:49.800Z,98865.27
2023-03-06T23:40:18.501Z,98861.34
2023-03-06T23:42:46.902Z,98859.75
2023-03-06T23:45:15.467Z,98853.91
2023-03-06T23:47:43.813Z,98850.33
2023-03-06T23:50:12.520Z,98846.64
2023-03-06T23:52:40.907Z,98844.23
2023-03-06T23:55:09.568Z,98845.55
2023-03-06T23:57:38.005Z,98841.15
